ASL27L LDDU-LYBE
Flight info
| Callsign | ASL27L |
|---|---|
| Flight time | 0h 41m |
| Altitude | 25000 |
| Route | MOKUN DCT TORTO DCT ELGEB |
| Aircraft | A319/M-SDE2E3FGHIJ1LORVWY/LB1 |
Departure
| Time | 2026-05-07 07:49 |
|---|---|
| Airport | Dubrovnik Ruđer Bošković Airport (LDDU) |
Arrival
| Time | 2026-05-07 08:30 |
|---|---|
| Airport | Belgrade Nikola Tesla Airport (LYBE) |
| Time | Latitude | Longitude | Altitude | Speed | Heading |
|---|---|---|---|---|---|
| 2026-05-07 07:28 | 42.56048 | 18.26395 | 0 ft | 0 kts | 209° |
| 2026-05-07 07:41 | 42.56052 | 18.26398 | 521 ft | 2 kts | 209° |
| 2026-05-07 07:41 | 42.56063 | 18.26406 | 522 ft | 3 kts | 212° |
| 2026-05-07 07:41 | 42.56084 | 18.26428 | 523 ft | 3 kts | 229° |
| 2026-05-07 07:41 | 42.56094 | 18.26449 | 524 ft | 3 kts | 275° |
| 2026-05-07 07:42 | 42.56093 | 18.26460 | 524 ft | 0 kts | 299° |
| 2026-05-07 07:44 | 42.56093 | 18.26459 | 524 ft | 0 kts | 299° |
| 2026-05-07 07:44 | 42.56102 | 18.26439 | 524 ft | 4 kts | 300° |
| 2026-05-07 07:44 | 42.56122 | 18.26391 | 524 ft | 8 kts | 299° |
| 2026-05-07 07:45 | 42.56153 | 18.26315 | 524 ft | 11 kts | 299° |
| 2026-05-07 07:45 | 42.56193 | 18.26217 | 524 ft | 13 kts | 299° |
| 2026-05-07 07:45 | 42.56240 | 18.26099 | 524 ft | 15 kts | 298° |
| 2026-05-07 07:45 | 42.56291 | 18.25963 | 524 ft | 17 kts | 296° |
| 2026-05-07 07:46 | 42.56350 | 18.25812 | 524 ft | 19 kts | 298° |
| 2026-05-07 07:46 | 42.56414 | 18.25652 | 525 ft | 19 kts | 298° |
| 2026-05-07 07:46 | 42.56477 | 18.25495 | 526 ft | 19 kts | 298° |
| 2026-05-07 07:46 | 42.56542 | 18.25328 | 523 ft | 22 kts | 298° |
| 2026-05-07 07:47 | 42.56614 | 18.25144 | 525 ft | 22 kts | 297° |
| 2026-05-07 07:47 | 42.56686 | 18.24964 | 525 ft | 22 kts | 298° |
| 2026-05-07 07:47 | 42.56756 | 18.24790 | 527 ft | 18 kts | 298° |
| 2026-05-07 07:47 | 42.56849 | 18.24675 | 524 ft | 20 kts | 354° |
| 2026-05-07 07:48 | 42.56935 | 18.24787 | 526 ft | 20 kts | 86° |
| 2026-05-07 07:48 | 42.56853 | 18.25028 | 524 ft | 49 kts | 118° |
| 2026-05-07 07:48 | 42.56593 | 18.25685 | 530 ft | 107 kts | 119° |
| 2026-05-07 07:48 | 42.56160 | 18.26765 | 644 ft | 145 kts | 117° |
| 2026-05-07 07:49 | 42.55682 | 18.27943 | 1319 ft | 140 kts | 118° |
| 2026-05-07 07:49 | 42.55215 | 18.29127 | 1913 ft | 147 kts | 119° |
| 2026-05-07 07:49 | 42.54704 | 18.30444 | 2279 ft | 168 kts | 120° |
| 2026-05-07 07:49 | 42.54115 | 18.31944 | 2618 ft | 193 kts | 120° |
| 2026-05-07 07:50 | 42.53400 | 18.33592 | 3071 ft | 217 kts | 127° |
| 2026-05-07 07:50 | 42.52299 | 18.35138 | 3633 ft | 238 kts | 142° |
| 2026-05-07 07:50 | 42.50848 | 18.36280 | 4542 ft | 243 kts | 158° |
| 2026-05-07 07:50 | 42.49197 | 18.36856 | 5458 ft | 248 kts | 175° |
| 2026-05-07 07:51 | 42.47454 | 18.36776 | 6438 ft | 253 kts | 192° |
| 2026-05-07 07:51 | 42.45776 | 18.35993 | 7375 ft | 257 kts | 209° |
| 2026-05-07 07:51 | 42.44343 | 18.34585 | 8366 ft | 259 kts | 225° |
| 2026-05-07 07:51 | 42.42990 | 18.32935 | 9341 ft | 263 kts | 221° |
| 2026-05-07 07:52 | 42.41523 | 18.31407 | 10284 ft | 267 kts | 218° |
| 2026-05-07 07:52 | 42.39978 | 18.30011 | 11086 ft | 272 kts | 214° |
| 2026-05-07 07:52 | 42.38312 | 18.28730 | 11887 ft | 278 kts | 210° |
| 2026-05-07 07:52 | 42.36509 | 18.27574 | 12293 ft | 299 kts | 206° |
| 2026-05-07 07:53 | 42.34473 | 18.26552 | 12586 ft | 321 kts | 200° |
| 2026-05-07 07:53 | 42.32203 | 18.26118 | 13229 ft | 337 kts | 181° |
| 2026-05-07 07:53 | 42.29889 | 18.26830 | 13992 ft | 351 kts | 159° |
| 2026-05-07 07:53 | 42.27898 | 18.28812 | 14659 ft | 365 kts | 134° |
| 2026-05-07 07:54 | 42.26688 | 18.31829 | 15306 ft | 377 kts | 108° |
| 2026-05-07 07:54 | 42.26524 | 18.35372 | 15965 ft | 386 kts | 81° |
| 2026-05-07 07:54 | 42.27479 | 18.38758 | 16622 ft | 390 kts | 56° |
| 2026-05-07 07:54 | 42.29361 | 18.41405 | 17265 ft | 393 kts | 37° |
| 2026-05-07 07:55 | 42.31564 | 18.43622 | 17925 ft | 395 kts | 32° |
| 2026-05-07 07:55 | 42.33848 | 18.45659 | 18533 ft | 399 kts | 31° |
| 2026-05-07 07:55 | 42.36236 | 18.47700 | 19107 ft | 403 kts | 30° |
| 2026-05-07 07:55 | 42.38594 | 18.49725 | 19705 ft | 407 kts | 31° |
| 2026-05-07 07:56 | 42.40981 | 18.51836 | 20340 ft | 412 kts | 32° |
| 2026-05-07 07:56 | 42.43366 | 18.54013 | 20970 ft | 415 kts | 33° |
| 2026-05-07 07:56 | 42.45756 | 18.56249 | 21576 ft | 419 kts | 33° |
| 2026-05-07 07:56 | 42.48158 | 18.58528 | 22160 ft | 422 kts | 33° |
| 2026-05-07 07:57 | 42.50572 | 18.60831 | 22735 ft | 426 kts | 33° |
| 2026-05-07 07:57 | 42.52980 | 18.63123 | 23259 ft | 429 kts | 33° |
| 2026-05-07 07:57 | 42.55451 | 18.65467 | 23765 ft | 433 kts | 33° |
| 2026-05-07 07:57 | 42.57935 | 18.67815 | 24191 ft | 437 kts | 33° |
| 2026-05-07 07:58 | 42.60442 | 18.70177 | 24617 ft | 440 kts | 33° |
| 2026-05-07 07:58 | 42.62971 | 18.72562 | 25008 ft | 444 kts | 33° |
| 2026-05-07 07:58 | 42.65484 | 18.74934 | 25133 ft | 443 kts | 34° |
| 2026-05-07 07:58 | 42.67972 | 18.77291 | 25163 ft | 431 kts | 34° |
| 2026-05-07 07:59 | 42.70414 | 18.79611 | 25159 ft | 426 kts | 34° |
| 2026-05-07 07:59 | 42.72848 | 18.81923 | 25162 ft | 425 kts | 34° |
| 2026-05-07 07:59 | 42.75278 | 18.84235 | 25160 ft | 425 kts | 34° |
| 2026-05-07 07:59 | 42.77701 | 18.86541 | 25166 ft | 425 kts | 34° |
| 2026-05-07 08:00 | 42.80126 | 18.88849 | 25169 ft | 425 kts | 34° |
| 2026-05-07 08:00 | 42.82551 | 18.91161 | 25160 ft | 425 kts | 34° |
| 2026-05-07 08:00 | 42.84944 | 18.93440 | 25165 ft | 425 kts | 34° |
| 2026-05-07 08:00 | 42.87371 | 18.95749 | 25159 ft | 424 kts | 34° |
| 2026-05-07 08:01 | 42.89793 | 18.98056 | 25156 ft | 424 kts | 34° |
| 2026-05-07 08:01 | 42.92214 | 19.00363 | 25141 ft | 423 kts | 34° |
| 2026-05-07 08:01 | 42.94629 | 19.02668 | 25141 ft | 423 kts | 34° |
| 2026-05-07 08:01 | 42.97007 | 19.04947 | 25134 ft | 423 kts | 34° |
| 2026-05-07 08:02 | 42.99408 | 19.07260 | 25130 ft | 423 kts | 34° |
| 2026-05-07 08:02 | 43.01818 | 19.09580 | 25132 ft | 424 kts | 34° |
| 2026-05-07 08:02 | 43.04234 | 19.11904 | 25130 ft | 424 kts | 34° |
| 2026-05-07 08:02 | 43.06657 | 19.14236 | 25139 ft | 425 kts | 34° |
| 2026-05-07 08:03 | 43.09080 | 19.16573 | 25137 ft | 425 kts | 34° |
| 2026-05-07 08:03 | 43.11499 | 19.18908 | 25132 ft | 424 kts | 34° |
| 2026-05-07 08:03 | 43.13879 | 19.21207 | 25123 ft | 424 kts | 34° |
| 2026-05-07 08:03 | 43.16287 | 19.23529 | 25122 ft | 424 kts | 34° |
| 2026-05-07 08:04 | 43.18702 | 19.25861 | 25121 ft | 424 kts | 34° |
| 2026-05-07 08:04 | 43.21124 | 19.28195 | 25122 ft | 424 kts | 34° |
| 2026-05-07 08:04 | 43.23542 | 19.30525 | 25110 ft | 424 kts | 34° |
| 2026-05-07 08:04 | 43.25926 | 19.32833 | 25107 ft | 424 kts | 34° |
| 2026-05-07 08:05 | 43.28337 | 19.35177 | 25106 ft | 424 kts | 34° |
| 2026-05-07 08:05 | 43.30749 | 19.37525 | 25093 ft | 424 kts | 34° |
| 2026-05-07 08:05 | 43.33161 | 19.39873 | 25095 ft | 424 kts | 34° |
| 2026-05-07 08:05 | 43.35567 | 19.42219 | 25097 ft | 424 kts | 34° |
| 2026-05-07 08:06 | 43.37944 | 19.44538 | 25092 ft | 423 kts | 34° |
| 2026-05-07 08:06 | 43.40348 | 19.46885 | 25092 ft | 423 kts | 34° |
| 2026-05-07 08:06 | 43.42752 | 19.49234 | 25086 ft | 423 kts | 34° |
| 2026-05-07 08:06 | 43.45159 | 19.51587 | 25086 ft | 423 kts | 34° |
| 2026-05-07 08:07 | 43.47564 | 19.53937 | 25088 ft | 423 kts | 34° |
| 2026-05-07 08:07 | 43.49971 | 19.56289 | 25083 ft | 423 kts | 34° |
| 2026-05-07 08:07 | 43.52337 | 19.58604 | 25084 ft | 424 kts | 34° |
| 2026-05-07 08:07 | 43.54743 | 19.60965 | 25087 ft | 424 kts | 34° |
| 2026-05-07 08:08 | 43.57147 | 19.63333 | 25092 ft | 424 kts | 34° |
| 2026-05-07 08:08 | 43.59550 | 19.65701 | 25092 ft | 424 kts | 34° |
| 2026-05-07 08:08 | 43.61961 | 19.68075 | 25094 ft | 424 kts | 34° |
| 2026-05-07 08:08 | 43.64369 | 19.70443 | 25096 ft | 424 kts | 34° |
| 2026-05-07 08:09 | 43.66765 | 19.72804 | 25089 ft | 423 kts | 34° |
| 2026-05-07 08:09 | 43.69167 | 19.75170 | 24991 ft | 424 kts | 34° |
| 2026-05-07 08:09 | 43.71540 | 19.77489 | 24618 ft | 422 kts | 34° |
| 2026-05-07 08:09 | 43.73943 | 19.79826 | 24225 ft | 420 kts | 34° |
| 2026-05-07 08:10 | 43.76326 | 19.82143 | 23837 ft | 417 kts | 34° |
| 2026-05-07 08:10 | 43.78693 | 19.84445 | 23410 ft | 414 kts | 34° |
| 2026-05-07 08:10 | 43.81042 | 19.86731 | 22943 ft | 410 kts | 34° |
| 2026-05-07 08:10 | 43.83371 | 19.89005 | 22489 ft | 407 kts | 34° |
| 2026-05-07 08:11 | 43.85676 | 19.91258 | 22050 ft | 403 kts | 34° |
| 2026-05-07 08:11 | 43.87928 | 19.93460 | 21618 ft | 400 kts | 34° |
| 2026-05-07 08:11 | 43.90193 | 19.95678 | 21184 ft | 396 kts | 34° |
| 2026-05-07 08:11 | 43.92439 | 19.97881 | 20751 ft | 393 kts | 35° |
| 2026-05-07 08:12 | 43.94666 | 20.00070 | 20338 ft | 390 kts | 35° |
| 2026-05-07 08:12 | 43.96874 | 20.02243 | 19918 ft | 387 kts | 35° |
| 2026-05-07 08:12 | 43.99061 | 20.04395 | 19513 ft | 384 kts | 35° |
| 2026-05-07 08:12 | 44.01231 | 20.06535 | 19094 ft | 382 kts | 35° |
| 2026-05-07 08:13 | 44.03359 | 20.08640 | 18716 ft | 379 kts | 35° |
| 2026-05-07 08:13 | 44.05497 | 20.10759 | 18318 ft | 376 kts | 35° |
| 2026-05-07 08:13 | 44.07625 | 20.12867 | 17858 ft | 373 kts | 35° |
| 2026-05-07 08:13 | 44.09733 | 20.14954 | 17411 ft | 371 kts | 35° |
| 2026-05-07 08:14 | 44.11913 | 20.16835 | 16969 ft | 367 kts | 25° |
| 2026-05-07 08:14 | 44.14290 | 20.18102 | 16532 ft | 364 kts | 14° |
| 2026-05-07 08:14 | 44.16770 | 20.18714 | 16108 ft | 360 kts | 2° |
| 2026-05-07 08:14 | 44.19257 | 20.18679 | 15678 ft | 355 kts | 353° |
| 2026-05-07 08:15 | 44.21683 | 20.18406 | 15266 ft | 354 kts | 353° |
| 2026-05-07 08:15 | 44.24132 | 20.18145 | 14853 ft | 352 kts | 353° |
| 2026-05-07 08:15 | 44.26580 | 20.17893 | 14446 ft | 350 kts | 353° |
| 2026-05-07 08:15 | 44.29007 | 20.17642 | 14047 ft | 349 kts | 353° |
| 2026-05-07 08:16 | 44.31415 | 20.17389 | 13615 ft | 347 kts | 353° |
| 2026-05-07 08:16 | 44.33814 | 20.17132 | 13168 ft | 344 kts | 353° |
| 2026-05-07 08:16 | 44.36187 | 20.16876 | 12720 ft | 340 kts | 353° |
| 2026-05-07 08:16 | 44.38538 | 20.16624 | 12282 ft | 338 kts | 353° |
| 2026-05-07 08:17 | 44.40874 | 20.16377 | 11850 ft | 335 kts | 353° |
| 2026-05-07 08:17 | 44.43186 | 20.16131 | 11424 ft | 331 kts | 353° |
| 2026-05-07 08:17 | 44.45452 | 20.15657 | 10998 ft | 327 kts | 346° |
| 2026-05-07 08:17 | 44.47640 | 20.15015 | 10636 ft | 324 kts | 346° |
| 2026-05-07 08:18 | 44.49829 | 20.14356 | 10303 ft | 320 kts | 346° |
| 2026-05-07 08:18 | 44.51993 | 20.13700 | 9967 ft | 316 kts | 346° |
| 2026-05-07 08:18 | 44.54126 | 20.13051 | 9600 ft | 311 kts | 346° |
| 2026-05-07 08:18 | 44.56233 | 20.12406 | 9233 ft | 308 kts | 346° |
| 2026-05-07 08:19 | 44.58316 | 20.11764 | 8870 ft | 305 kts | 346° |
| 2026-05-07 08:19 | 44.60377 | 20.11122 | 8512 ft | 302 kts | 346° |
| 2026-05-07 08:19 | 44.62426 | 20.10480 | 8160 ft | 300 kts | 346° |
| 2026-05-07 08:19 | 44.64427 | 20.09844 | 7811 ft | 297 kts | 346° |
| 2026-05-07 08:20 | 44.66443 | 20.09197 | 7465 ft | 296 kts | 346° |
| 2026-05-07 08:20 | 44.68445 | 20.08542 | 7123 ft | 294 kts | 346° |
| 2026-05-07 08:20 | 44.70436 | 20.07885 | 6783 ft | 293 kts | 346° |
| 2026-05-07 08:20 | 44.72414 | 20.07221 | 6442 ft | 291 kts | 346° |
| 2026-05-07 08:21 | 44.74357 | 20.06561 | 6093 ft | 290 kts | 346° |
| 2026-05-07 08:21 | 44.76320 | 20.05892 | 5730 ft | 288 kts | 346° |
| 2026-05-07 08:21 | 44.78247 | 20.05233 | 5380 ft | 282 kts | 346° |
| 2026-05-07 08:21 | 44.80132 | 20.04588 | 5032 ft | 277 kts | 346° |
| 2026-05-07 08:22 | 44.81992 | 20.03954 | 4704 ft | 271 kts | 346° |
| 2026-05-07 08:22 | 44.83802 | 20.03333 | 4424 ft | 263 kts | 346° |
| 2026-05-07 08:22 | 44.85557 | 20.02730 | 4140 ft | 255 kts | 346° |
| 2026-05-07 08:22 | 44.87244 | 20.02148 | 3870 ft | 249 kts | 346° |
| 2026-05-07 08:23 | 44.88921 | 20.01572 | 3606 ft | 248 kts | 346° |
| 2026-05-07 08:23 | 44.90618 | 20.00991 | 3341 ft | 254 kts | 346° |
| 2026-05-07 08:23 | 44.92354 | 20.00416 | 3156 ft | 255 kts | 350° |
| 2026-05-07 08:23 | 44.94081 | 20.00501 | 3037 ft | 251 kts | 15° |
| 2026-05-07 08:24 | 44.95605 | 20.01594 | 3006 ft | 243 kts | 41° |
| 2026-05-07 08:24 | 44.96634 | 20.03408 | 3004 ft | 233 kts | 66° |
| 2026-05-07 08:24 | 44.97047 | 20.05546 | 3007 ft | 223 kts | 89° |
| 2026-05-07 08:24 | 44.96859 | 20.07674 | 3012 ft | 215 kts | 111° |
| 2026-05-07 08:25 | 44.96170 | 20.09456 | 3004 ft | 206 kts | 131° |
| 2026-05-07 08:25 | 44.95101 | 20.10758 | 3005 ft | 202 kts | 151° |
| 2026-05-07 08:25 | 44.93811 | 20.11454 | 3005 ft | 192 kts | 166° |
| 2026-05-07 08:25 | 44.92547 | 20.11931 | 3025 ft | 185 kts | 166° |
| 2026-05-07 08:26 | 44.90268 | 20.12908 | 2949 ft | 165 kts | 153° |
| 2026-05-07 08:26 | 44.89385 | 20.13909 | 2797 ft | 164 kts | 131° |
| 2026-05-07 08:26 | 44.88763 | 20.15252 | 2616 ft | 163 kts | 124° |
| 2026-05-07 08:27 | 44.88168 | 20.16605 | 2417 ft | 161 kts | 124° |
| 2026-05-07 08:27 | 44.87580 | 20.17941 | 2195 ft | 159 kts | 124° |
| 2026-05-07 08:27 | 44.87042 | 20.19164 | 2000 ft | 139 kts | 123° |
| 2026-05-07 08:27 | 44.86550 | 20.20277 | 1819 ft | 130 kts | 125° |
| 2026-05-07 08:28 | 44.86073 | 20.21360 | 1649 ft | 129 kts | 125° |
| 2026-05-07 08:28 | 44.85602 | 20.22423 | 1467 ft | 128 kts | 125° |
| 2026-05-07 08:28 | 44.85139 | 20.23470 | 1302 ft | 126 kts | 124° |
| 2026-05-07 08:28 | 44.84700 | 20.24463 | 1127 ft | 125 kts | 123° |
| 2026-05-07 08:29 | 44.84246 | 20.25511 | 973 ft | 125 kts | 124° |
| 2026-05-07 08:29 | 44.83789 | 20.26556 | 779 ft | 125 kts | 124° |
| 2026-05-07 08:29 | 44.83328 | 20.27577 | 608 ft | 125 kts | 124° |
| 2026-05-07 08:29 | 44.82869 | 20.28621 | 436 ft | 125 kts | 126° |
| 2026-05-07 08:30 | 44.82412 | 20.29646 | 312 ft | 117 kts | 123° |
| 2026-05-07 08:30 | 44.82039 | 20.30467 | 305 ft | 77 kts | 122° |
| 2026-05-07 08:30 | 44.81821 | 20.30961 | 308 ft | 47 kts | 122° |
| 2026-05-07 08:30 | 44.81681 | 20.31243 | 307 ft | 32 kts | 138° |
| 2026-05-07 08:31 | 44.81488 | 20.31401 | 307 ft | 31 kts | 151° |
| 2026-05-07 08:31 | 44.81352 | 20.31466 | 306 ft | 12 kts | 203° |
| 2026-05-07 08:31 | 44.81330 | 20.31362 | 308 ft | 14 kts | 302° |
| 2026-05-07 08:31 | 44.81387 | 20.31233 | 306 ft | 17 kts | 302° |
| 2026-05-07 08:32 | 44.81453 | 20.31085 | 306 ft | 19 kts | 302° |
| 2026-05-07 08:32 | 44.81523 | 20.30924 | 306 ft | 20 kts | 301° |
| 2026-05-07 08:32 | 44.81600 | 20.30750 | 307 ft | 21 kts | 302° |
| 2026-05-07 08:32 | 44.81654 | 20.30630 | 307 ft | 22 kts | 302° |
| 2026-05-07 08:33 | 44.81741 | 20.30437 | 308 ft | 24 kts | 302° |
| 2026-05-07 08:33 | 44.81833 | 20.30227 | 307 ft | 26 kts | 301° |
| 2026-05-07 08:33 | 44.81932 | 20.30001 | 306 ft | 27 kts | 302° |
| 2026-05-07 08:33 | 44.82047 | 20.29743 | 307 ft | 21 kts | 302° |
| 2026-05-07 08:34 | 44.82091 | 20.29645 | 309 ft | 12 kts | 302° |
| 2026-05-07 08:34 | 44.82105 | 20.29536 | 307 ft | 13 kts | 228° |
| 2026-05-07 08:34 | 44.82108 | 20.29414 | 307 ft | 15 kts | 303° |
| 2026-05-07 08:34 | 44.82165 | 20.29287 | 308 ft | 15 kts | 303° |
| 2026-05-07 08:35 | 44.82199 | 20.29209 | 308 ft | 4 kts | 293° |
| 2026-05-07 08:35 | 44.82183 | 20.29182 | 308 ft | 5 kts | 210° |
| 2026-05-07 08:35 | 44.82148 | 20.29153 | 307 ft | 7 kts | 212° |
| 2026-05-07 08:35 | 44.82137 | 20.29142 | 308 ft | 0 kts | 211° |
| 2026-05-07 08:36 | 44.82130 | 20.29137 | 307 ft | 1 kts | 212° |
| 2026-05-07 08:36 | 44.82130 | 20.29136 | 307 ft | 0 kts | 212° |